createdAt,value
2022-09-11T00:01:40.558Z,13.70
2022-09-11T00:04:07.871Z,13.80
2022-09-11T00:06:34.718Z,13.80
2022-09-11T00:09:04.846Z,13.80
2022-09-11T00:11:41.081Z,13.90
2022-09-11T00:14:10.548Z,13.90
2022-09-11T00:16:41.731Z,13.90
2022-09-11T00:19:13.190Z,14.10
2022-09-11T00:21:40.232Z,14.20
2022-09-11T00:24:09.829Z,14.20
2022-09-11T00:26:37.988Z,14.20
2022-09-11T00:29:05.070Z,14.00
2022-09-11T00:31:32.678Z,13.90
2022-09-11T00:33:59.732Z,13.80
2022-09-11T00:36:35.827Z,13.90
2022-09-11T00:39:03.212Z,13.80
2022-09-11T00:41:36.014Z,13.80
2022-09-11T00:44:02.930Z,13.70
2022-09-11T00:46:56.300Z,13.70
2022-09-11T00:49:47.801Z,13.70
2022-09-11T00:52:22.461Z,13.70
2022-09-11T00:54:56.499Z,13.50
2022-09-11T00:57:28.506Z,13.60
2022-09-11T00:59:58.662Z,13.70
2022-09-11T01:02:28.833Z,13.80
2022-09-11T01:04:57.425Z,13.80
2022-09-11T01:07:26.928Z,13.80
2022-09-11T01:09:55.019Z,13.80
2022-09-11T01:12:39.962Z,13.80
2022-09-11T01:15:25.341Z,13.70
2022-09-11T01:18:19.991Z,13.60
2022-09-11T01:21:08.931Z,13.70
2022-09-11T01:23:54.892Z,13.70
2022-09-11T01:27:10.510Z,13.60
2022-09-11T01:29:51.040Z,13.60
2022-09-11T01:32:39.913Z,13.40
2022-09-11T01:36:03.284Z,13.30
2022-09-11T01:38:35.406Z,13.30
2022-09-11T01:41:29.044Z,13.30
2022-09-11T01:44:23.222Z,13.50
2022-09-11T01:46:53.780Z,13.70
2022-09-11T01:49:48.089Z,13.50
2022-09-11T01:52:29.968Z,13.50
2022-09-11T01:55:29.517Z,13.50
2022-09-11T01:58:03.648Z,13.60
2022-09-11T02:00:32.275Z,13.60
2022-09-11T02:03:11.871Z,13.60
2022-09-11T02:05:55.575Z,13.50
2022-09-11T02:08:49.278Z,13.30
2022-09-11T02:11:17.953Z,13.30
2022-09-11T02:14:18.062Z,13.30
2022-09-11T02:16:56.983Z,13.20
2022-09-11T02:19:29.831Z,13.40
2022-09-11T02:21:58.545Z,13.40
2022-09-11T02:24:27.649Z,13.40
2022-09-11T02:27:13.660Z,13.30
2022-09-11T02:29:40.631Z,13.30
2022-09-11T02:32:07.519Z,13.40
2022-09-11T02:34:36.828Z,13.40
2022-09-11T02:37:49.263Z,13.40
2022-09-11T02:40:44.051Z,13.50
2022-09-11T02:43:34.807Z,13.40
2022-09-11T02:46:34.546Z,13.50
2022-09-11T02:50:02.296Z,13.40
2022-09-11T02:52:41.433Z,13.50
2022-09-11T02:55:18.806Z,13.50
2022-09-11T02:58:15.640Z,13.60
2022-09-11T03:00:42.889Z,13.60
2022-09-11T03:03:09.766Z,13.60
2022-09-11T03:05:37.109Z,13.70
2022-09-11T03:08:04.307Z,13.70
2022-09-11T03:10:31.143Z,13.60
2022-09-11T03:12:59.632Z,13.60
2022-09-11T03:15:27.379Z,13.60
2022-09-11T03:17:54.213Z,13.70
2022-09-11T03:20:21.987Z,13.60
2022-09-11T03:22:48.821Z,13.70
2022-09-11T03:25:15.675Z,13.80
2022-09-11T03:27:43.430Z,13.70
2022-09-11T03:30:10.742Z,13.70
2022-09-11T03:32:37.625Z,13.80
2022-09-11T03:35:04.773Z,13.90
2022-09-11T03:37:31.744Z,13.90
2022-09-11T03:39:58.873Z,14.00
2022-09-11T03:42:25.800Z,14.00
2022-09-11T03:44:52.669Z,14.00
2022-09-11T03:47:22.075Z,13.90
2022-09-11T03:49:49.229Z,13.90
2022-09-11T03:52:16.044Z,14.00
2022-09-11T03:54:42.820Z,14.00
2022-09-11T03:57:09.997Z,14.00
2022-09-11T03:59:36.884Z,14.00
2022-09-11T04:02:03.916Z,14.10
2022-09-11T04:04:30.969Z,14.10
2022-09-11T04:06:58.379Z,14.10
2022-09-11T04:09:25.536Z,14.00
2022-09-11T04:11:52.283Z,14.10
2022-09-11T04:14:19.322Z,14.00
2022-09-11T04:16:46.367Z,14.10
2022-09-11T04:19:13.548Z,14.20
2022-09-11T04:21:40.827Z,14.10
2022-09-11T04:24:07.588Z,14.10
2022-09-11T04:26:34.445Z,14.10
2022-09-11T04:29:01.293Z,14.20
2022-09-11T04:31:28.436Z,14.30
2022-09-11T04:33:57.943Z,14.30
2022-09-11T04:36:26.937Z,14.20
2022-09-11T04:38:58.696Z,14.10
2022-09-11T04:41:26.749Z,14.20
2022-09-11T04:44:03.823Z,14.10
2022-09-11T04:46:31.901Z,14.00
2022-09-11T04:49:02.308Z,14.00
2022-09-11T04:51:32.703Z,13.90
2022-09-11T04:54:00.963Z,13.90
2022-09-11T04:56:31.312Z,13.80
2022-09-11T04:59:03.409Z,13.90
2022-09-11T05:01:32.136Z,13.90
2022-09-11T05:04:01.600Z,13.90
2022-09-11T05:06:30.373Z,13.80
2022-09-11T05:09:03.198Z,13.90
2022-09-11T05:11:30.358Z,13.80
2022-09-11T05:13:59.465Z,13.70
2022-09-11T05:16:29.149Z,13.60
2022-09-11T05:18:57.320Z,13.60
2022-09-11T05:21:26.048Z,13.60
2022-09-11T05:23:55.807Z,13.50
2022-09-11T05:26:36.399Z,13.40
2022-09-11T05:29:11.747Z,13.40
2022-09-11T05:31:39.422Z,13.40
2022-09-11T05:34:06.836Z,13.50
2022-09-11T05:36:35.356Z,13.50
2022-09-11T05:39:03.740Z,13.60
2022-09-11T05:41:31.624Z,13.60
2022-09-11T05:43:59.210Z,13.70
2022-09-11T05:46:26.466Z,13.80
2022-09-11T05:48:53.571Z,13.80
2022-09-11T05:51:21.905Z,13.70
2022-09-11T05:53:53.543Z,13.70
2022-09-11T05:56:23.807Z,13.70
2022-09-11T05:58:54.786Z,13.70
2022-09-11T06:01:25.771Z,13.70
2022-09-11T06:03:53.661Z,13.70
2022-09-11T06:06:22.782Z,13.70
2022-09-11T06:08:51.774Z,13.70
2022-09-11T06:11:21.124Z,13.80
2022-09-11T06:13:49.442Z,13.80
2022-09-11T06:16:23.941Z,13.80
2022-09-11T06:18:52.597Z,13.90
2022-09-11T06:21:23.113Z,13.90
2022-09-11T06:23:52.007Z,13.80
2022-09-11T06:26:22.672Z,13.80
2022-09-11T06:28:50.928Z,13.80
2022-09-11T06:31:26.671Z,13.80
2022-09-11T06:33:54.109Z,13.80
2022-09-11T06:36:23.912Z,13.90
2022-09-11T06:38:55.407Z,13.80
2022-09-11T06:41:22.969Z,13.80
2022-09-11T06:43:50.226Z,13.80
2022-09-11T06:46:20.126Z,13.90
2022-09-11T06:48:49.579Z,13.90
2022-09-11T06:51:20.156Z,14.00
2022-09-11T06:53:47.494Z,13.90
2022-09-11T06:56:18.130Z,13.90
2022-09-11T06:58:45.952Z,13.90
2022-09-11T07:01:15.977Z,13.90
2022-09-11T07:03:48.479Z,13.90
2022-09-11T07:06:18.904Z,14.10
2022-09-11T07:08:52.424Z,14.10
2022-09-11T07:11:20.267Z,14.10
2022-09-11T07:13:47.387Z,14.20
2022-09-11T07:16:16.490Z,14.30
2022-09-11T07:18:46.291Z,14.50
2022-09-11T07:21:21.296Z,14.70
2022-09-11T07:23:54.364Z,15.00
2022-09-11T07:26:22.481Z,15.10
2022-09-11T07:28:51.421Z,15.10
2022-09-11T07:31:21.862Z,15.10
2022-09-11T07:33:50.898Z,15.20
2022-09-11T07:36:25.077Z,15.20
2022-09-11T07:38:52.504Z,15.10
2022-09-11T07:41:22.384Z,15.20
2022-09-11T07:43:57.537Z,15.40
2022-09-11T07:46:25.195Z,15.50
2022-09-11T07:48:51.963Z,15.70
2022-09-11T07:53:59.440Z,15.60
2022-09-11T07:56:27.668Z,15.50
2022-09-11T07:58:55.676Z,15.40
2022-09-11T08:01:29.733Z,15.50
2022-09-11T08:04:02.120Z,15.30
2022-09-11T08:06:32.994Z,15.50
2022-09-11T08:09:06.739Z,15.50
2022-09-11T08:11:38.848Z,15.50
2022-09-11T08:14:07.304Z,15.40
2022-09-11T08:16:36.189Z,15.50
2022-09-11T08:19:04.016Z,15.80
2022-09-11T08:21:31.038Z,15.90
2022-09-11T08:23:58.263Z,16.00
2022-09-11T08:26:28.882Z,16.10
2022-09-11T08:28:57.882Z,16.20
2022-09-11T08:31:27.627Z,16.50
2022-09-11T08:33:55.967Z,16.90
2022-09-11T08:36:24.270Z,17.20
2022-09-11T08:38:52.451Z,17.40
2022-09-11T08:41:28.196Z,17.50
2022-09-11T08:44:03.263Z,17.40
2022-09-11T08:46:40.761Z,17.60
2022-09-11T08:49:32.518Z,17.70
2022-09-11T08:52:03.025Z,17.70
2022-09-11T08:54:33.389Z,17.70
2022-09-11T08:57:35.107Z,17.80
2022-09-11T09:00:20.875Z,18.00
2022-09-11T09:03:10.991Z,18.00
2022-09-11T09:06:24.647Z,18.10
2022-09-11T09:09:13.633Z,18.60
2022-09-11T09:11:56.753Z,18.80
2022-09-11T09:15:17.053Z,18.70
2022-09-11T09:17:50.194Z,18.60
2022-09-11T09:20:21.545Z,18.60
2022-09-11T09:23:05.610Z,18.80
2022-09-11T09:25:38.645Z,19.00
2022-09-11T09:28:21.876Z,19.30
2022-09-11T09:31:01.463Z,19.20
2022-09-11T09:33:38.087Z,19.20
2022-09-11T09:36:31.328Z,18.80
2022-09-11T09:38:58.752Z,18.70
2022-09-11T09:41:56.840Z,18.70
2022-09-11T09:44:50.928Z,19.00
2022-09-11T09:47:18.563Z,18.90
2022-09-11T09:49:47.216Z,18.80
2022-09-11T09:52:24.304Z,18.70
2022-09-11T09:55:06.833Z,18.60
2022-09-11T09:57:39.898Z,18.50
2022-09-11T10:00:17.758Z,18.30
2022-09-11T10:02:53.903Z,18.10
2022-09-11T10:05:29.370Z,18.50
2022-09-11T10:07:59.710Z,19.10
2022-09-11T10:10:34.822Z,19.60
2022-09-11T10:13:18.897Z,19.70
2022-09-11T10:15:49.386Z,19.50
2022-09-11T10:18:42.981Z,19.20
2022-09-11T10:21:12.898Z,18.80
2022-09-11T10:24:03.824Z,18.60
2022-09-11T10:26:40.856Z,18.70
2022-09-11T10:29:15.998Z,18.80
2022-09-11T10:31:55.070Z,19.00
2022-09-11T10:34:25.923Z,19.40
2022-09-11T10:37:03.468Z,19.80
2022-09-11T10:39:35.270Z,19.80
2022-09-11T10:42:16.568Z,19.30
2022-09-11T10:44:45.725Z,18.30
2022-09-11T10:47:28.283Z,17.40
2022-09-11T10:50:30.994Z,17.00
2022-09-11T10:53:18.090Z,17.10
2022-09-11T10:56:00.639Z,17.40
2022-09-11T10:58:34.349Z,17.60
2022-09-11T11:01:01.484Z,17.60
2022-09-11T11:03:29.524Z,17.70
2022-09-11T11:06:15.618Z,17.80
2022-09-11T11:08:58.700Z,17.80
2022-09-11T11:11:56.081Z,17.80
2022-09-11T11:14:32.445Z,17.80
2022-09-11T11:17:45.697Z,17.60
2022-09-11T11:20:46.280Z,17.20
2022-09-11T11:23:26.466Z,17.20
2022-09-11T11:26:21.019Z,17.10
2022-09-11T11:29:19.687Z,17.40
2022-09-11T11:31:55.637Z,17.60
2022-09-11T11:34:37.202Z,18.00
2022-09-11T11:37:19.269Z,18.20
2022-09-11T11:40:03.591Z,18.20
2022-09-11T11:42:38.571Z,18.00
2022-09-11T11:45:41.012Z,17.80
2022-09-11T11:48:38.022Z,17.60
2022-09-11T11:51:15.505Z,17.50
2022-09-11T11:54:17.531Z,17.60
2022-09-11T11:57:02.726Z,18.00
2022-09-11T11:59:44.609Z,18.50
2022-09-11T12:02:34.974Z,18.80
2022-09-11T12:05:24.183Z,19.30
2022-09-11T12:07:51.899Z,19.60
2022-09-11T12:10:33.599Z,19.50
2022-09-11T12:13:05.649Z,19.40
2022-09-11T12:15:34.607Z,19.20
2022-09-11T12:18:12.271Z,19.20
2022-09-11T12:20:45.215Z,19.30
2022-09-11T12:23:29.963Z,19.00
2022-09-11T12:26:09.003Z,18.80
2022-09-11T12:28:37.833Z,18.70
2022-09-11T12:31:13.974Z,19.00
2022-09-11T12:33:44.277Z,19.00
2022-09-11T12:36:17.044Z,19.20
2022-09-11T12:38:49.191Z,19.10
2022-09-11T12:41:27.417Z,19.10
2022-09-11T12:43:54.981Z,19.00
2022-09-11T12:46:21.670Z,18.90
2022-09-11T12:49:18.061Z,19.20
2022-09-11T12:51:54.098Z,19.50
2022-09-11T12:54:29.695Z,19.80
2022-09-11T12:57:12.915Z,19.80
2022-09-11T12:59:42.452Z,19.50
2022-09-11T13:02:36.516Z,19.40
2022-09-11T13:05:17.153Z,19.20
2022-09-11T13:07:47.699Z,19.20
2022-09-11T13:10:35.158Z,19.10
2022-09-11T13:13:04.969Z,19.10
2022-09-11T13:15:36.719Z,19.00
2022-09-11T13:18:25.551Z,19.00
2022-09-11T13:21:00.645Z,19.10
2022-09-11T13:23:28.555Z,19.10
2022-09-11T13:25:58.525Z,19.00
2022-09-11T13:28:28.165Z,18.80
2022-09-11T13:31:02.213Z,18.50
2022-09-11T13:33:31.294Z,18.40
2022-09-11T13:36:02.698Z,18.20
2022-09-11T13:38:37.409Z,18.40
2022-09-11T13:41:19.994Z,18.40
2022-09-11T13:43:58.309Z,18.20
2022-09-11T13:46:32.534Z,18.20
2022-09-11T13:49:06.469Z,18.20
2022-09-11T13:51:33.987Z,18.30
2022-09-11T13:54:07.502Z,18.10
2022-09-11T13:56:48.609Z,17.80
2022-09-11T13:59:50.347Z,17.90
2022-09-11T14:02:44.410Z,17.80
2022-09-11T14:05:16.021Z,18.00
2022-09-11T14:07:56.723Z,18.30
2022-09-11T14:10:42.799Z,18.50
2022-09-11T14:13:33.272Z,18.70
2022-09-11T14:16:08.926Z,18.70
2022-09-11T14:18:59.740Z,18.70
2022-09-11T14:21:36.485Z,18.60
2022-09-11T14:24:07.298Z,18.40
2022-09-11T14:26:35.034Z,18.20
2022-09-11T14:29:31.371Z,18.10
2022-09-11T14:32:38.976Z,18.20
2022-09-11T14:35:09.510Z,18.30
2022-09-11T14:37:45.560Z,18.00
2022-09-11T14:40:18.733Z,18.20
2022-09-11T14:42:46.258Z,18.20
2022-09-11T14:45:23.928Z,18.20
2022-09-11T14:47:51.169Z,18.10
2022-09-11T14:50:18.538Z,18.00
2022-09-11T14:52:46.376Z,17.90
2022-09-11T14:55:19.353Z,17.80
2022-09-11T14:57:46.751Z,17.80
2022-09-11T15:00:16.483Z,17.90
2022-09-11T15:02:43.267Z,17.60
2022-09-11T15:05:16.864Z,17.50
2022-09-11T15:07:46.927Z,17.30
2022-09-11T15:10:15.118Z,17.20
2022-09-11T15:12:42.683Z,17.10
2022-09-11T15:15:10.553Z,17.10
2022-09-11T15:17:37.502Z,17.10
2022-09-11T15:20:07.158Z,17.30
2022-09-11T15:22:34.809Z,17.40
2022-09-11T15:25:01.898Z,17.40
2022-09-11T15:27:28.769Z,17.40
2022-09-11T15:29:55.607Z,17.40
2022-09-11T15:32:22.487Z,17.40
2022-09-11T15:34:49.500Z,17.40
2022-09-11T15:37:16.942Z,17.40
2022-09-11T15:39:44.241Z,17.40
2022-09-11T15:42:11.894Z,17.50
2022-09-11T15:44:39.107Z,17.60
2022-09-11T15:47:06.180Z,17.50
2022-09-11T15:49:33.261Z,17.50
2022-09-11T15:52:00.346Z,17.60
2022-09-11T15:54:27.552Z,17.50
2022-09-11T15:56:54.867Z,17.60
2022-09-11T15:59:21.770Z,17.70
2022-09-11T16:01:48.914Z,17.60
2022-09-11T16:04:20.174Z,17.60
2022-09-11T16:06:48.897Z,17.60
2022-09-11T16:09:18.201Z,17.50
2022-09-11T16:11:47.758Z,17.50
2022-09-11T16:14:27.529Z,17.60
2022-09-11T16:16:57.106Z,17.50
2022-09-11T16:19:27.814Z,17.40
2022-09-11T16:21:57.176Z,17.40
2022-09-11T16:24:26.554Z,17.30
2022-09-11T16:26:55.913Z,17.30
2022-09-11T16:29:25.819Z,17.10
2022-09-11T16:31:52.776Z,17.10
2022-09-11T16:34:19.661Z,17.00
2022-09-11T16:36:46.930Z,17.00
2022-09-11T16:39:22.133Z,17.10
2022-09-11T16:41:49.296Z,17.00
2022-09-11T16:44:17.179Z,16.90
2022-09-11T16:46:45.372Z,16.90
2022-09-11T16:49:18.361Z,16.90
2022-09-11T16:51:47.247Z,16.70
2022-09-11T16:54:15.105Z,16.70
2022-09-11T16:56:45.921Z,16.70
2022-09-11T16:59:13.145Z,16.80
2022-09-11T17:01:40.003Z,16.70
2022-09-11T17:04:06.989Z,16.80
2022-09-11T17:06:33.829Z,16.80
2022-09-11T17:09:04.102Z,16.80
2022-09-11T17:11:33.269Z,16.80
2022-09-11T17:14:02.267Z,16.80
2022-09-11T17:16:31.999Z,16.80
2022-09-11T17:19:01.501Z,16.80
2022-09-11T17:21:35.571Z,16.80
2022-09-11T17:24:04.638Z,16.80
2022-09-11T17:26:31.942Z,16.70
2022-09-11T17:29:05.040Z,16.60
2022-09-11T17:31:32.085Z,16.50
2022-09-11T17:33:59.182Z,16.40
2022-09-11T17:36:26.080Z,16.40
2022-09-11T17:38:52.927Z,16.40
2022-09-11T17:41:21.019Z,16.50
2022-09-11T17:43:48.374Z,16.40
2022-09-11T17:46:19.872Z,16.40
2022-09-11T17:48:47.860Z,16.30
2022-09-11T17:51:20.120Z,16.30
2022-09-11T17:53:55.516Z,16.30
2022-09-11T17:56:32.546Z,16.30
2022-09-11T17:59:00.714Z,16.30
2022-09-11T18:01:30.470Z,16.40
2022-09-11T18:03:59.195Z,16.40
2022-09-11T18:06:34.434Z,16.30
2022-09-11T18:09:19.674Z,16.30
2022-09-11T18:11:50.333Z,16.10
2022-09-11T18:14:18.791Z,15.90
2022-09-11T18:16:47.804Z,15.90
2022-09-11T18:19:17.870Z,16.00
2022-09-11T18:21:49.770Z,16.00
2022-09-11T18:24:21.619Z,16.00
2022-09-11T18:26:59.970Z,16.00
2022-09-11T18:29:27.069Z,16.00
2022-09-11T18:31:54.594Z,16.10
2022-09-11T18:34:24.577Z,16.00
2022-09-11T18:36:52.058Z,16.10
2022-09-11T18:39:21.661Z,16.10
2022-09-11T18:41:50.491Z,16.10
2022-09-11T18:44:20.361Z,16.00
2022-09-11T18:46:47.981Z,16.10
2022-09-11T18:49:16.124Z,16.00
2022-09-11T18:51:43.224Z,16.00
2022-09-11T18:54:20.050Z,16.00
2022-09-11T18:56:49.119Z,16.00
2022-09-11T18:59:16.802Z,16.00
2022-09-11T19:01:43.888Z,16.10
2022-09-11T19:04:12.341Z,16.00
2022-09-11T19:06:40.244Z,16.10
2022-09-11T19:09:10.399Z,16.00
2022-09-11T19:11:37.668Z,15.90
2022-09-11T19:14:08.359Z,15.90
2022-09-11T19:16:36.162Z,16.00
2022-09-11T19:19:04.026Z,15.90
2022-09-11T19:21:30.907Z,15.90
2022-09-11T19:24:00.595Z,15.90
2022-09-11T19:26:33.431Z,15.80
2022-09-11T19:29:00.955Z,15.80
2022-09-11T19:31:29.642Z,15.80
2022-09-11T19:34:00.730Z,15.80
2022-09-11T19:36:31.419Z,15.80
2022-09-11T19:39:01.704Z,15.80
2022-09-11T19:41:35.311Z,15.80
2022-09-11T19:44:04.939Z,15.80
2022-09-11T19:46:34.858Z,15.80
2022-09-11T19:49:05.531Z,15.80
2022-09-11T19:51:41.453Z,15.80
2022-09-11T19:54:11.015Z,15.80
2022-09-11T19:56:38.856Z,15.80
2022-09-11T19:59:08.055Z,15.80
2022-09-11T20:01:35.175Z,15.80
2022-09-11T20:04:02.377Z,15.80
2022-09-11T20:06:32.118Z,15.80
2022-09-11T20:09:27.353Z,15.80
2022-09-11T20:11:47.303Z,15.70
2022-09-11T20:14:14.122Z,15.70
2022-09-11T20:16:41.524Z,15.80
2022-09-11T20:19:10.050Z,15.70
2022-09-11T20:21:36.932Z,15.70
2022-09-11T20:24:07.205Z,15.60
2022-09-11T20:26:34.045Z,15.60
2022-09-11T20:29:12.794Z,15.70
2022-09-11T20:31:47.655Z,15.70
2022-09-11T20:34:17.416Z,15.70
2022-09-11T20:36:44.311Z,15.70
2022-09-11T20:39:13.549Z,15.70
2022-09-11T20:41:41.139Z,15.70
2022-09-11T20:44:08.245Z,15.70
2022-09-11T20:46:35.161Z,15.70
2022-09-11T20:49:03.035Z,15.60
2022-09-11T20:51:30.254Z,15.60
2022-09-11T20:53:57.097Z,15.50
2022-09-11T20:56:24.210Z,15.50
2022-09-11T20:58:51.914Z,15.40
2022-09-11T21:01:24.072Z,15.40
2022-09-11T21:03:56.968Z,15.40
2022-09-11T21:06:27.031Z,15.40
2022-09-11T21:08:57.090Z,15.20
2022-09-11T21:11:29.638Z,15.10
2022-09-11T21:13:56.436Z,15.00
2022-09-11T21:16:23.325Z,15.10
2022-09-11T21:18:56.815Z,15.10
2022-09-11T21:21:25.833Z,15.10
2022-09-11T21:23:58.706Z,15.20
2022-09-11T21:26:27.429Z,15.20
2022-09-11T21:28:56.217Z,15.10
2022-09-11T21:31:23.600Z,14.90
2022-09-11T21:33:50.662Z,14.80
2022-09-11T21:36:17.537Z,14.80
2022-09-11T21:38:44.557Z,14.90
2022-09-11T21:41:13.494Z,15.00
2022-09-11T21:43:40.399Z,15.10
2022-09-11T21:46:08.874Z,15.10
2022-09-11T21:48:38.734Z,15.20
2022-09-11T21:51:18.662Z,15.10
2022-09-11T21:53:47.142Z,15.20
2022-09-11T21:56:29.056Z,15.20
2022-09-11T21:58:56.415Z,15.20
2022-09-11T22:01:25.151Z,15.20
2022-09-11T22:03:52.890Z,15.10
2022-09-11T22:06:21.385Z,15.10
2022-09-11T22:08:48.163Z,15.10
2022-09-11T22:11:16.135Z,15.10
2022-09-11T22:13:43.770Z,15.10
2022-09-11T22:16:14.265Z,15.20
2022-09-11T22:18:42.170Z,15.00
2022-09-11T22:21:10.302Z,15.00
2022-09-11T22:23:37.229Z,15.00
2022-09-11T22:26:19.128Z,15.00
2022-09-11T22:28:45.937Z,15.00
2022-09-11T22:31:19.898Z,15.00
2022-09-11T22:33:46.998Z,14.90
2022-09-11T22:36:24.658Z,14.80
2022-09-11T22:38:51.853Z,14.80
2022-09-11T22:41:19.712Z,15.00
2022-09-11T22:43:48.742Z,15.00
2022-09-11T22:46:16.775Z,15.00
2022-09-11T22:48:43.919Z,15.00
2022-09-11T22:51:10.834Z,15.00
2022-09-11T22:53:39.576Z,15.10
2022-09-11T22:56:07.601Z,15.10
2022-09-11T22:58:34.401Z,15.10
2022-09-11T23:01:03.567Z,15.10
2022-09-11T23:03:30.754Z,15.20
2022-09-11T23:06:18.399Z,15.20
2022-09-11T23:08:46.812Z,15.10
2022-09-11T23:11:17.105Z,15.10
2022-09-11T23:13:44.300Z,15.10
2022-09-11T23:16:20.878Z,15.20
2022-09-11T23:18:48.747Z,15.20
2022-09-11T23:21:15.674Z,15.20
2022-09-11T23:23:43.348Z,15.20
2022-09-11T23:26:14.070Z,15.20
2022-09-11T23:28:41.464Z,15.10
2022-09-11T23:31:20.779Z,15.10
2022-09-11T23:33:48.539Z,15.10
2022-09-11T23:36:17.400Z,15.10
2022-09-11T23:38:46.204Z,15.20
2022-09-11T23:41:13.788Z,15.10
2022-09-11T23:43:41.389Z,15.10
2022-09-11T23:46:08.618Z,15.10
2022-09-11T23:48:35.531Z,15.10
2022-09-11T23:51:02.694Z,15.00
2022-09-11T23:53:30.324Z,15.00
2022-09-11T23:55:58.094Z,14.90
2022-09-11T23:58:24.960Z,14.90
